createdAt,value
2024-03-08T00:01:29.483Z,35.35
2024-03-08T00:03:04.376Z,30.65
2024-03-08T00:04:37.666Z,29.92
2024-03-08T00:06:12.892Z,35.03
2024-03-08T00:07:46.232Z,29.85
2024-03-08T00:09:23.335Z,31.33
2024-03-08T00:10:56.386Z,35.58
2024-03-08T00:12:30.866Z,31.45
2024-03-08T00:14:07.728Z,29.58
2024-03-08T00:15:42.504Z,30.75
2024-03-08T00:17:16.976Z,32.40
2024-03-08T00:18:51.587Z,33.15
2024-03-08T00:20:24.673Z,35.83
2024-03-08T00:21:58.737Z,29.33
2024-03-08T00:23:31.606Z,29.90
2024-03-08T00:25:06.846Z,33.85
2024-03-08T00:26:39.945Z,35.42
2024-03-08T00:28:16.208Z,33.47
2024-03-08T00:29:49.435Z,40.55
2024-03-08T00:31:25.261Z,32.50
2024-03-08T00:32:59.229Z,30.88
2024-03-08T00:34:32.846Z,37.53
2024-03-08T00:36:08.557Z,33.80
2024-03-08T00:37:43.385Z,32.60
2024-03-08T00:39:17.818Z,34.60
2024-03-08T00:40:50.717Z,41.45
2024-03-08T00:42:25.620Z,31.83
2024-03-08T00:44:00.268Z,33.97
2024-03-08T00:45:33.508Z,33.60
2024-03-08T00:47:09.381Z,34.97
2024-03-08T00:48:44.610Z,33.30
2024-03-08T00:50:19.584Z,36.85
2024-03-08T00:51:52.629Z,36.10
2024-03-08T00:53:26.752Z,30.05
2024-03-08T00:55:00.798Z,29.13
2024-03-08T00:56:35.646Z,31.70
2024-03-08T00:58:10.412Z,32.00
2024-03-08T00:59:43.516Z,29.90
2024-03-08T01:01:17.957Z,32.50
2024-03-08T01:02:53.325Z,34.70
2024-03-08T01:04:30.076Z,36.92
2024-03-08T01:06:04.491Z,29.00
2024-03-08T01:07:38.708Z,29.75
2024-03-08T01:09:12.024Z,29.98
2024-03-08T01:10:46.568Z,30.98
2024-03-08T01:12:19.791Z,33.97
2024-03-08T01:13:56.069Z,28.80
2024-03-08T01:15:30.547Z,33.25
2024-03-08T01:17:03.459Z,30.77
2024-03-08T01:18:38.848Z,33.95
2024-03-08T01:20:13.654Z,35.60
2024-03-08T01:21:48.143Z,32.38
2024-03-08T01:23:21.096Z,29.77
2024-03-08T01:24:55.285Z,34.03
2024-03-08T01:26:28.253Z,32.17
2024-03-08T01:28:02.626Z,31.70
2024-03-08T01:29:35.562Z,34.10
2024-03-08T01:31:09.755Z,37.47
2024-03-08T01:32:43.732Z,36.95
2024-03-08T01:34:19.612Z,30.67
2024-03-08T01:35:53.753Z,36.28
2024-03-08T01:37:26.652Z,37.03
2024-03-08T01:39:00.518Z,35.00
2024-03-08T01:40:34.867Z,37.67
2024-03-08T01:42:08.133Z,30.63
2024-03-08T01:43:42.070Z,33.58
2024-03-08T01:45:15.013Z,36.80
2024-03-08T01:46:50.245Z,37.75
2024-03-08T01:48:25.088Z,33.53
2024-03-08T01:50:01.012Z,31.65
2024-03-08T01:51:34.190Z,35.72
2024-03-08T01:53:08.935Z,34.47
2024-03-08T01:54:43.151Z,39.05
2024-03-08T01:56:16.224Z,34.63
2024-03-08T01:57:50.547Z,35.75
2024-03-08T01:59:23.897Z,36.08
2024-03-08T02:00:59.321Z,36.53
2024-03-08T02:02:34.889Z,35.28
2024-03-08T02:04:09.293Z,36.53
2024-03-08T02:05:45.114Z,46.70
2024-03-08T02:07:19.039Z,32.92
2024-03-08T02:08:52.591Z,36.58
2024-03-08T02:10:26.492Z,34.40
2024-03-08T02:11:59.835Z,33.50
2024-03-08T02:13:34.017Z,33.30
2024-03-08T02:15:08.019Z,32.65
2024-03-08T02:16:41.996Z,38.78
2024-03-08T02:18:15.859Z,35.10
2024-03-08T02:19:49.830Z,33.55
2024-03-08T02:21:24.107Z,31.55
2024-03-08T02:22:57.951Z,38.92
2024-03-08T02:24:31.982Z,33.95
2024-03-08T02:26:06.715Z,33.80
2024-03-08T02:27:42.323Z,43.17
2024-03-08T02:29:17.134Z,43.05
2024-03-08T02:30:50.985Z,37.40
2024-03-08T02:32:25.330Z,36.30
2024-03-08T02:34:00.744Z,41.83
2024-03-08T02:35:34.040Z,32.13
2024-03-08T02:37:10.135Z,31.95
2024-03-08T02:38:43.034Z,37.28
2024-03-08T02:40:17.733Z,39.53
2024-03-08T02:41:50.718Z,35.80
2024-03-08T02:43:26.249Z,35.00
2024-03-08T02:44:59.626Z,37.15
2024-03-08T02:46:33.638Z,33.75
2024-03-08T02:48:07.785Z,37.42
2024-03-08T02:49:42.202Z,38.50
2024-03-08T02:51:17.387Z,35.03
2024-03-08T02:52:51.844Z,36.03
2024-03-08T02:54:25.985Z,40.42
2024-03-08T02:55:59.612Z,29.10
2024-03-08T02:57:33.600Z,29.63
2024-03-08T02:59:06.696Z,39.00
2024-03-08T03:00:42.101Z,30.35
2024-03-08T03:02:15.583Z,32.00
2024-03-08T03:03:49.501Z,37.90
2024-03-08T03:05:22.558Z,34.85
2024-03-08T03:06:57.097Z,39.95
2024-03-08T03:08:32.128Z,30.40
2024-03-08T03:10:08.213Z,33.22
2024-03-08T03:11:42.098Z,34.60
2024-03-08T03:13:15.463Z,32.70
2024-03-08T03:14:50.118Z,41.60
2024-03-08T03:16:24.027Z,40.70
2024-03-08T03:17:57.982Z,36.67
2024-03-08T03:19:31.320Z,39.67
2024-03-08T03:21:09.226Z,34.28
2024-03-08T03:22:42.613Z,38.80
2024-03-08T03:24:19.124Z,31.48
2024-03-08T03:25:53.349Z,34.60
2024-03-08T03:27:27.600Z,41.90
2024-03-08T03:29:01.836Z,38.40
2024-03-08T03:30:35.907Z,31.83
2024-03-08T03:32:08.954Z,35.45
2024-03-08T03:33:43.401Z,36.47
2024-03-08T03:35:17.028Z,29.67
2024-03-08T03:36:50.955Z,36.25
2024-03-08T03:38:24.950Z,35.28
2024-03-08T03:40:00.940Z,40.05
2024-03-08T03:41:33.929Z,29.27
2024-03-08T03:43:08.301Z,33.75
2024-03-08T03:44:41.339Z,34.60
2024-03-08T03:46:15.687Z,38.92
2024-03-08T03:47:48.665Z,34.65
2024-03-08T03:49:22.778Z,33.33
2024-03-08T03:50:56.920Z,38.50
2024-03-08T03:52:30.138Z,34.97
2024-03-08T03:54:05.031Z,30.85
2024-03-08T03:55:41.664Z,33.88
2024-03-08T03:57:15.077Z,41.50
2024-03-08T03:58:50.475Z,35.95
2024-03-08T04:00:23.536Z,37.70
2024-03-08T04:01:57.674Z,33.13
2024-03-08T04:03:30.600Z,35.63
2024-03-08T04:05:05.449Z,35.20
2024-03-08T04:06:39.389Z,38.83
2024-03-08T04:08:12.736Z,33.25
2024-03-08T04:09:46.628Z,36.85
2024-03-08T04:11:22.516Z,41.08
2024-03-08T04:12:57.955Z,32.58
2024-03-08T04:14:30.957Z,38.63
2024-03-08T04:16:09.020Z,43.35
2024-03-08T04:17:42.508Z,38.17
2024-03-08T04:19:16.579Z,41.05
2024-03-08T04:20:49.667Z,39.72
2024-03-08T04:22:23.710Z,34.97
2024-03-08T04:23:58.119Z,43.40
2024-03-08T04:25:32.052Z,40.50
2024-03-08T04:27:06.606Z,36.00
2024-03-08T04:28:40.897Z,40.42
2024-03-08T04:30:14.706Z,39.72
2024-03-08T04:31:48.690Z,41.70
2024-03-08T04:33:22.821Z,35.22
2024-03-08T04:34:56.947Z,37.85
2024-03-08T04:36:30.232Z,41.13
2024-03-08T04:38:06.478Z,35.40
2024-03-08T04:39:39.744Z,45.88
2024-03-08T04:41:13.890Z,37.67
2024-03-08T04:42:50.240Z,37.55
2024-03-08T04:44:25.512Z,38.88
2024-03-08T04:45:59.476Z,41.90
2024-03-08T04:47:33.552Z,40.38
2024-03-08T04:49:08.632Z,36.88
2024-03-08T04:50:42.498Z,45.38
2024-03-08T04:52:15.793Z,38.65
2024-03-08T04:53:49.832Z,40.33
2024-03-08T04:55:23.393Z,39.15
2024-03-08T04:56:57.393Z,42.17
2024-03-08T04:58:31.698Z,41.45
2024-03-08T05:00:12.092Z,46.67
2024-03-08T05:01:45.497Z,48.30
2024-03-08T05:03:19.463Z,45.53
2024-03-08T05:04:52.576Z,52.67
2024-03-08T05:06:26.417Z,53.38
2024-03-08T05:07:59.807Z,56.83
2024-03-08T05:09:34.974Z,48.70
2024-03-08T05:11:08.595Z,45.50
2024-03-08T05:12:42.594Z,50.70
2024-03-08T05:14:18.466Z,52.05
2024-03-08T05:15:52.496Z,49.80
2024-03-08T05:17:25.339Z,47.55
2024-03-08T05:19:00.527Z,55.60
2024-03-08T05:20:34.035Z,52.63
2024-03-08T05:22:08.000Z,45.38
2024-03-08T05:23:41.068Z,50.00
2024-03-08T05:25:15.334Z,49.38
2024-03-08T05:26:49.313Z,50.83
2024-03-08T05:28:23.354Z,63.15
2024-03-08T05:29:57.930Z,53.17
2024-03-08T05:31:38.484Z,51.20
2024-03-08T05:33:11.938Z,52.80
2024-03-08T05:34:45.845Z,56.58
2024-03-08T05:36:18.859Z,48.38
2024-03-08T05:37:52.886Z,54.22
2024-03-08T05:39:26.487Z,54.92
2024-03-08T05:41:00.585Z,56.35
2024-03-08T05:42:33.898Z,50.53
2024-03-08T05:44:08.169Z,53.42
2024-03-08T05:45:42.837Z,49.47
2024-03-08T05:47:17.117Z,51.30
2024-03-08T05:48:50.389Z,52.45
2024-03-08T05:50:24.552Z,51.17
2024-03-08T05:51:57.989Z,49.25
2024-03-08T05:53:32.782Z,47.33
2024-03-08T05:55:08.535Z,48.72
2024-03-08T05:56:44.701Z,43.63
2024-03-08T05:58:18.568Z,52.08
2024-03-08T05:59:52.957Z,49.38
2024-03-08T06:01:28.568Z,52.80
2024-03-08T06:03:01.649Z,51.22
2024-03-08T06:04:36.024Z,51.20
2024-03-08T06:06:09.195Z,54.63
2024-03-08T06:07:43.519Z,52.22
2024-03-08T06:09:24.151Z,48.70
2024-03-08T06:11:00.838Z,49.70
2024-03-08T06:12:38.203Z,46.65
2024-03-08T06:14:12.325Z,43.00
2024-03-08T06:15:46.594Z,44.00
2024-03-08T06:17:21.385Z,44.88
2024-03-08T06:18:56.492Z,46.47
2024-03-08T06:20:29.726Z,44.00
2024-03-08T06:22:06.751Z,43.28
2024-03-08T06:23:41.586Z,45.47
2024-03-08T06:25:16.038Z,47.95
2024-03-08T06:26:50.067Z,45.72
2024-03-08T06:28:24.113Z,46.05
2024-03-08T06:29:57.535Z,40.53
2024-03-08T06:31:31.611Z,46.03
2024-03-08T06:33:08.318Z,44.30
2024-03-08T06:34:41.306Z,47.03
2024-03-08T06:36:16.363Z,49.22
2024-03-08T06:37:49.655Z,40.50
2024-03-08T06:39:26.292Z,39.55
2024-03-08T06:40:59.718Z,38.47
2024-03-08T06:42:36.588Z,34.92
2024-03-08T06:44:10.306Z,37.90
2024-03-08T06:45:49.908Z,37.63
2024-03-08T06:47:24.022Z,38.92
2024-03-08T06:49:00.161Z,36.75
2024-03-08T06:50:33.314Z,38.15
2024-03-08T06:52:10.234Z,39.33
2024-03-08T06:53:43.524Z,45.28
2024-03-08T06:55:18.822Z,49.67
2024-03-08T06:56:52.070Z,41.30
2024-03-08T06:58:26.221Z,39.67
2024-03-08T06:59:59.302Z,44.53
2024-03-08T07:01:36.347Z,38.88
2024-03-08T07:03:13.662Z,40.38
2024-03-08T07:04:48.276Z,34.28
2024-03-08T07:06:22.431Z,37.75
2024-03-08T07:07:56.369Z,36.83
2024-03-08T07:09:30.429Z,47.42
2024-03-08T07:11:05.198Z,41.05
2024-03-08T07:12:38.326Z,35.83
2024-03-08T07:14:12.743Z,33.25
2024-03-08T07:15:46.695Z,38.38
2024-03-08T07:17:20.702Z,34.85
2024-03-08T07:18:53.965Z,34.00
2024-03-08T07:20:30.457Z,40.05
2024-03-08T07:22:04.848Z,37.75
2024-03-08T07:23:55.820Z,38.00
2024-03-08T07:25:31.251Z,34.70
2024-03-08T07:27:06.550Z,33.35
2024-03-08T07:28:40.917Z,37.65
2024-03-08T07:30:14.438Z,33.05
2024-03-08T07:31:57.875Z,30.73
2024-03-08T07:33:32.115Z,31.95
2024-03-08T07:35:07.064Z,33.22
2024-03-08T07:36:41.704Z,31.73
2024-03-08T07:38:16.173Z,38.63
2024-03-08T07:39:49.537Z,33.13
2024-03-08T07:41:24.412Z,33.38
2024-03-08T07:42:57.880Z,31.38
2024-03-08T07:44:33.568Z,32.28
2024-03-08T07:46:07.030Z,31.85
2024-03-08T07:47:41.323Z,33.55
2024-03-08T07:49:15.212Z,33.25
2024-03-08T07:50:51.504Z,35.05
2024-03-08T07:52:27.167Z,33.15
2024-03-08T07:54:01.391Z,33.00
2024-03-08T07:55:34.680Z,32.28
2024-03-08T07:57:10.235Z,37.22
2024-03-08T07:58:44.059Z,32.50
2024-03-08T08:00:19.858Z,35.72
2024-03-08T08:01:55.436Z,34.22
2024-03-08T08:03:29.904Z,31.63
2024-03-08T08:05:03.086Z,35.40
2024-03-08T08:06:39.272Z,34.95
2024-03-08T08:08:13.673Z,36.03
2024-03-08T08:09:48.197Z,38.17
2024-03-08T08:11:21.511Z,35.13
2024-03-08T08:12:55.480Z,34.20
2024-03-08T08:14:28.428Z,38.28
2024-03-08T08:16:02.657Z,34.83
2024-03-08T08:17:36.017Z,31.70
2024-03-08T08:19:15.072Z,31.30
2024-03-08T08:20:48.503Z,31.88
2024-03-08T08:22:23.183Z,32.95
2024-03-08T08:23:57.699Z,38.15
2024-03-08T08:25:32.481Z,31.30
2024-03-08T08:27:05.673Z,41.70
2024-03-08T08:28:42.589Z,36.88
2024-03-08T08:30:16.132Z,29.80
2024-03-08T08:31:51.100Z,28.40
2024-03-08T08:33:26.822Z,30.92
2024-03-08T08:35:01.396Z,30.50
2024-03-08T08:36:35.632Z,30.38
2024-03-08T08:38:08.704Z,31.98
2024-03-08T08:39:44.224Z,32.80
2024-03-08T08:41:19.412Z,28.02
2024-03-08T08:42:53.940Z,33.00
2024-03-08T08:44:27.301Z,31.38
2024-03-08T08:46:02.335Z,28.70
2024-03-08T08:47:36.308Z,30.77
2024-03-08T08:49:11.812Z,31.17
2024-03-08T08:50:46.192Z,28.77
2024-03-08T08:52:20.891Z,36.17
2024-03-08T08:53:54.775Z,34.10
2024-03-08T08:55:32.748Z,32.08
2024-03-08T08:57:08.913Z,34.25
2024-03-08T08:58:43.630Z,37.50
2024-03-08T09:00:17.967Z,33.05
2024-03-08T09:01:54.978Z,28.23
2024-03-08T09:03:30.872Z,34.63
2024-03-08T09:05:04.509Z,29.48
2024-03-08T09:06:39.320Z,34.90
2024-03-08T09:08:12.401Z,40.15
2024-03-08T09:09:46.695Z,27.05
2024-03-08T09:11:21.451Z,31.27
2024-03-08T09:12:56.405Z,31.80
2024-03-08T09:14:29.363Z,29.35
2024-03-08T09:16:06.242Z,32.00
2024-03-08T09:17:40.975Z,35.03
2024-03-08T09:19:15.740Z,26.50
2024-03-08T09:20:49.979Z,28.98
2024-03-08T09:22:23.618Z,27.83
2024-03-08T09:23:57.601Z,34.97
2024-03-08T09:25:32.512Z,30.95
2024-03-08T09:27:10.850Z,33.50
2024-03-08T09:28:44.684Z,28.17
2024-03-08T09:30:17.725Z,32.60
2024-03-08T09:31:52.889Z,32.38
2024-03-08T09:33:26.039Z,31.50
2024-03-08T09:35:01.986Z,32.08
2024-03-08T09:36:35.084Z,28.00
2024-03-08T09:38:14.597Z,26.60
2024-03-08T09:39:47.828Z,30.98
2024-03-08T09:41:21.885Z,29.67
2024-03-08T09:42:56.779Z,29.13
2024-03-08T09:44:31.416Z,27.85
2024-03-08T09:46:05.605Z,28.60
2024-03-08T09:47:42.808Z,29.83
2024-03-08T09:49:15.814Z,33.67
2024-03-08T09:50:51.108Z,28.98
2024-03-08T09:52:24.218Z,31.90
2024-03-08T09:54:02.835Z,27.80
2024-03-08T09:55:38.598Z,27.65
2024-03-08T09:57:13.565Z,30.05
2024-03-08T09:59:09.183Z,28.60
2024-03-08T10:00:43.562Z,31.30
2024-03-08T10:02:17.983Z,29.90
2024-03-08T10:03:56.160Z,35.75
2024-03-08T10:05:29.511Z,27.85
2024-03-08T10:07:04.179Z,31.63
2024-03-08T10:08:39.245Z,33.95
2024-03-08T10:10:13.448Z,33.72
2024-03-08T10:11:47.976Z,31.67
2024-03-08T10:13:21.231Z,30.65
2024-03-08T10:15:01.446Z,28.63
2024-03-08T10:16:35.272Z,31.73
2024-03-08T10:18:09.970Z,28.45
2024-03-08T10:19:52.021Z,30.65
2024-03-08T10:21:26.435Z,32.38
2024-03-08T10:23:07.496Z,29.67
2024-03-08T10:24:48.045Z,26.33
2024-03-08T10:26:22.917Z,27.60
2024-03-08T10:27:58.188Z,30.90
2024-03-08T10:29:32.376Z,28.65
2024-03-08T10:31:08.151Z,32.25
2024-03-08T10:32:42.436Z,25.08
2024-03-08T10:34:17.677Z,27.88
2024-03-08T10:35:51.343Z,28.70
2024-03-08T10:37:26.084Z,28.77
2024-03-08T10:39:02.652Z,27.23
2024-03-08T10:40:41.310Z,26.05
2024-03-08T10:42:19.538Z,26.38
2024-03-08T10:44:14.091Z,32.28
2024-03-08T10:45:50.228Z,28.00
2024-03-08T10:47:31.849Z,26.55
2024-03-08T10:49:09.300Z,26.02
2024-03-08T10:50:46.449Z,26.08
2024-03-08T10:52:20.725Z,24.35
2024-03-08T10:53:56.622Z,25.25
2024-03-08T10:55:29.881Z,27.38
2024-03-08T10:57:06.634Z,28.95
2024-03-08T10:58:41.364Z,27.15
2024-03-08T11:00:17.604Z,27.83
2024-03-08T11:01:52.200Z,24.95
2024-03-08T11:03:54.989Z,22.67
2024-03-08T11:05:40.879Z,24.25
2024-03-08T11:07:18.981Z,23.50
2024-03-08T11:08:52.109Z,28.88
2024-03-08T11:10:28.368Z,24.35
2024-03-08T11:12:26.606Z,20.00
2024-03-08T11:14:00.505Z,21.20
2024-03-08T11:15:35.075Z,22.48
2024-03-08T11:17:08.292Z,27.15
2024-03-08T11:18:44.295Z,27.23
2024-03-08T11:20:22.063Z,20.30
2024-03-08T11:22:04.315Z,21.75
2024-03-08T11:23:37.762Z,27.90
2024-03-08T11:25:12.133Z,24.33
2024-03-08T11:26:47.907Z,23.88
2024-03-08T11:28:23.681Z,22.95
2024-03-08T11:30:17.100Z,21.42
2024-03-08T11:31:52.991Z,27.58
2024-03-08T11:33:30.040Z,25.15
2024-03-08T11:35:06.827Z,22.98
2024-03-08T11:36:44.787Z,18.27
2024-03-08T11:38:20.396Z,22.70
2024-03-08T11:40:00.569Z,21.98
2024-03-08T11:41:35.288Z,30.23
2024-03-08T11:43:08.769Z,31.27
2024-03-08T11:44:45.625Z,22.02
2024-03-08T11:46:19.780Z,22.65
2024-03-08T11:47:58.743Z,20.67
2024-03-08T11:49:34.498Z,21.60
2024-03-08T11:51:09.322Z,22.60
2024-03-08T11:52:46.484Z,18.42
2024-03-08T11:54:19.758Z,23.38
2024-03-08T11:55:53.946Z,21.88
2024-03-08T11:57:27.631Z,18.17
2024-03-08T11:59:03.395Z,21.58
2024-03-08T12:00:37.029Z,21.80
2024-03-08T12:02:12.213Z,22.27
2024-03-08T12:03:45.639Z,21.52
2024-03-08T12:05:22.580Z,17.10
2024-03-08T12:06:55.523Z,18.50
2024-03-08T12:08:32.277Z,19.23
2024-03-08T12:10:24.140Z,21.38
2024-03-08T12:11:58.395Z,21.20
2024-03-08T12:13:35.127Z,20.42
2024-03-08T12:15:12.530Z,16.10
2024-03-08T12:16:46.186Z,21.48
2024-03-08T12:18:20.123Z,18.42
2024-03-08T12:19:55.915Z,21.75
2024-03-08T12:21:30.676Z,17.92
2024-03-08T12:23:04.472Z,16.73
2024-03-08T12:24:42.411Z,16.85
2024-03-08T12:26:17.141Z,14.68
2024-03-08T12:27:53.481Z,15.68
2024-03-08T12:29:28.816Z,18.67
2024-03-08T12:31:03.460Z,17.83
2024-03-08T12:32:37.060Z,18.50
2024-03-08T12:34:11.373Z,14.15
2024-03-08T12:35:55.940Z,16.27
2024-03-08T12:37:30.747Z,18.13
2024-03-08T12:39:05.038Z,18.80
2024-03-08T12:40:43.299Z,19.23
2024-03-08T12:42:16.882Z,19.85
2024-03-08T12:43:51.213Z,15.82
2024-03-08T12:45:25.255Z,19.05
2024-03-08T12:47:00.432Z,17.70
2024-03-08T12:48:36.736Z,20.60
2024-03-08T12:50:12.000Z,16.42
2024-03-08T12:51:45.225Z,19.20
2024-03-08T12:53:19.235Z,16.42
2024-03-08T12:54:53.265Z,20.15
2024-03-08T12:56:34.532Z,16.52
2024-03-08T12:58:08.705Z,19.38
2024-03-08T12:59:43.922Z,14.25
2024-03-08T13:01:18.826Z,18.60
2024-03-08T13:02:53.285Z,15.35
2024-03-08T13:04:27.009Z,17.50
2024-03-08T13:06:01.246Z,24.38
2024-03-08T13:07:35.021Z,15.30
2024-03-08T13:09:09.036Z,20.95
2024-03-08T13:10:44.675Z,15.90
2024-03-08T13:12:21.222Z,21.85
2024-03-08T13:13:55.639Z,19.70
2024-03-08T13:15:30.802Z,15.75
2024-03-08T13:17:05.342Z,18.08
2024-03-08T13:18:38.662Z,18.38
2024-03-08T13:20:24.845Z,18.42
2024-03-08T13:22:05.772Z,19.00
2024-03-08T13:23:41.660Z,15.88
2024-03-08T13:25:15.199Z,18.30
2024-03-08T13:26:51.596Z,15.73
2024-03-08T13:28:31.107Z,15.10
2024-03-08T13:30:05.837Z,15.35
2024-03-08T13:31:40.920Z,19.95
2024-03-08T13:33:15.321Z,15.82
2024-03-08T13:34:52.060Z,13.80
2024-03-08T13:36:30.436Z,20.60
2024-03-08T13:38:04.576Z,17.27
2024-03-08T13:39:44.889Z,14.48
2024-03-08T13:41:21.568Z,20.63
2024-03-08T13:42:55.610Z,14.50
2024-03-08T13:44:30.281Z,15.43
2024-03-08T13:46:05.941Z,15.18
2024-03-08T13:47:40.532Z,15.20
2024-03-08T13:49:14.784Z,20.30
2024-03-08T13:50:47.812Z,14.00
2024-03-08T13:52:22.018Z,13.68
2024-03-08T13:53:55.402Z,13.60
2024-03-08T13:55:29.338Z,12.75
2024-03-08T13:57:04.800Z,13.93
2024-03-08T13:58:39.244Z,12.00
2024-03-08T14:00:15.481Z,18.75
2024-03-08T14:01:50.134Z,11.13
2024-03-08T14:03:24.839Z,13.43
2024-03-08T14:05:03.297Z,12.02
2024-03-08T14:08:13.151Z,12.52
2024-03-08T14:09:45.930Z,16.90
2024-03-08T14:11:20.897Z,15.25
2024-03-08T14:12:53.951Z,13.90
2024-03-08T14:14:27.665Z,13.90
2024-03-08T14:16:01.982Z,14.88
2024-03-08T14:17:37.199Z,14.90
2024-03-08T14:19:11.059Z,17.17
2024-03-08T14:20:45.426Z,19.38
2024-03-08T14:22:18.733Z,14.52
2024-03-08T14:23:53.683Z,13.65
2024-03-08T14:25:27.353Z,14.98
2024-03-08T14:27:01.553Z,15.70
2024-03-08T14:28:34.685Z,16.73
2024-03-08T14:30:11.942Z,15.73
2024-03-08T14:31:47.199Z,15.95
2024-03-08T14:33:20.296Z,14.82
2024-03-08T14:34:56.259Z,17.10
2024-03-08T14:36:29.717Z,16.73
2024-03-08T14:38:03.941Z,15.15
2024-03-08T14:39:36.955Z,17.52
2024-03-08T14:41:11.017Z,15.57
2024-03-08T14:42:44.114Z,15.60
2024-03-08T14:44:19.848Z,16.77
2024-03-08T14:45:53.881Z,14.40
2024-03-08T14:47:28.210Z,17.20
2024-03-08T14:49:02.522Z,12.30
2024-03-08T14:50:38.027Z,20.80
2024-03-08T14:52:28.303Z,16.45
2024-03-08T14:54:03.524Z,16.45
2024-03-08T14:55:36.778Z,15.15
2024-03-08T14:57:10.648Z,14.50
2024-03-08T14:58:44.971Z,12.85
2024-03-08T15:00:28.415Z,14.85
2024-03-08T15:02:02.882Z,16.48
2024-03-08T15:03:39.600Z,13.32
2024-03-08T15:05:12.829Z,14.38
2024-03-08T15:06:50.759Z,13.98
2024-03-08T15:08:26.707Z,16.75
2024-03-08T15:10:00.777Z,12.88
2024-03-08T15:11:35.766Z,13.95
2024-03-08T15:13:16.500Z,12.80
2024-03-08T15:14:52.348Z,11.05
2024-03-08T15:16:26.318Z,12.93
2024-03-08T15:18:00.419Z,11.40
2024-03-08T15:19:36.153Z,12.82
2024-03-08T15:21:10.235Z,11.10
2024-03-08T15:22:44.577Z,14.60
2024-03-08T15:24:22.200Z,13.23
2024-03-08T15:25:56.056Z,11.95
2024-03-08T15:27:30.372Z,15.10
2024-03-08T15:29:03.404Z,15.13
2024-03-08T15:30:37.413Z,18.00
2024-03-08T15:32:15.895Z,13.52
2024-03-08T15:33:52.969Z,16.70
2024-03-08T15:35:27.596Z,13.35
2024-03-08T15:37:04.317Z,16.27
2024-03-08T15:38:38.267Z,12.13
2024-03-08T15:40:21.975Z,14.25
2024-03-08T15:41:56.375Z,11.65
2024-03-08T15:43:30.618Z,12.93
2024-03-08T15:45:05.264Z,14.75
2024-03-08T15:46:40.838Z,11.00
2024-03-08T15:48:13.973Z,13.65
2024-03-08T15:49:48.129Z,17.00
2024-03-08T15:51:24.084Z,13.68
2024-03-08T15:52:57.123Z,13.45
2024-03-08T15:54:31.419Z,11.80
2024-03-08T15:56:07.049Z,15.55
2024-03-08T15:57:41.778Z,13.10
2024-03-08T15:59:15.424Z,11.40
2024-03-08T16:00:49.926Z,13.23
2024-03-08T16:02:24.739Z,17.65
2024-03-08T16:03:59.491Z,11.40
2024-03-08T16:05:32.496Z,15.57
2024-03-08T16:07:07.952Z,13.45
2024-03-08T16:08:41.120Z,13.55
2024-03-08T16:10:15.720Z,12.70
2024-03-08T16:11:49.744Z,22.88
2024-03-08T16:13:24.836Z,17.80
2024-03-08T16:14:58.255Z,15.07
2024-03-08T16:16:33.684Z,19.60
2024-03-08T16:18:08.036Z,13.15
2024-03-08T16:19:42.735Z,18.05
2024-03-08T16:21:16.556Z,14.55
2024-03-08T16:22:54.036Z,15.43
2024-03-08T16:24:28.240Z,14.23
2024-03-08T16:26:01.404Z,17.27
2024-03-08T16:27:35.526Z,16.88
2024-03-08T16:29:09.077Z,14.95
2024-03-08T16:30:48.981Z,15.70
2024-03-08T16:32:22.089Z,16.95
2024-03-08T16:33:56.106Z,21.52
2024-03-08T16:35:29.542Z,17.10
2024-03-08T16:37:04.582Z,19.48
2024-03-08T16:38:40.067Z,16.67
2024-03-08T16:40:16.643Z,15.98
2024-03-08T16:41:52.178Z,16.73
2024-03-08T16:43:25.254Z,13.68
2024-03-08T16:44:59.829Z,17.38
2024-03-08T16:46:35.929Z,17.92
2024-03-08T16:48:12.373Z,18.40
2024-03-08T16:49:46.626Z,19.70
2024-03-08T16:51:20.782Z,17.52
2024-03-08T16:52:56.815Z,18.20
2024-03-08T16:54:43.478Z,18.20
2024-03-08T16:56:25.830Z,16.40
2024-03-08T16:58:00.008Z,16.05
2024-03-08T16:59:33.840Z,19.50
2024-03-08T17:01:08.366Z,19.17
2024-03-08T17:02:41.623Z,17.52
2024-03-08T17:04:19.105Z,14.95
2024-03-08T17:05:55.623Z,17.83
2024-03-08T17:07:33.413Z,20.58
2024-03-08T17:09:12.996Z,17.95
2024-03-08T17:10:47.716Z,20.63
2024-03-08T17:12:21.789Z,17.65
2024-03-08T17:13:55.352Z,21.08
2024-03-08T17:15:30.237Z,20.15
2024-03-08T17:17:06.150Z,17.13
2024-03-08T17:18:38.990Z,17.60
2024-03-08T17:20:16.671Z,19.48
2024-03-08T17:21:50.556Z,19.35
2024-03-08T17:23:24.641Z,17.95
2024-03-08T17:24:57.721Z,16.10
2024-03-08T17:26:33.700Z,21.52
2024-03-08T17:28:09.922Z,17.75
2024-03-08T17:29:45.637Z,18.38
2024-03-08T17:31:22.519Z,17.58
2024-03-08T17:33:00.847Z,17.58
2024-03-08T17:34:36.718Z,18.20
2024-03-08T17:36:12.372Z,20.00
2024-03-08T17:37:48.218Z,18.77
2024-03-08T17:39:23.252Z,21.63
2024-03-08T17:40:56.402Z,22.00
2024-03-08T17:42:32.888Z,18.10
2024-03-08T17:44:05.954Z,17.83
2024-03-08T17:45:42.067Z,16.00
2024-03-08T17:47:16.656Z,19.40
2024-03-08T17:48:50.652Z,23.45
2024-03-08T17:50:25.317Z,19.17
2024-03-08T17:52:03.925Z,21.70
2024-03-08T17:53:37.038Z,21.13
2024-03-08T17:55:14.922Z,20.10
2024-03-08T17:56:47.902Z,25.52
2024-03-08T17:58:23.993Z,17.50
2024-03-08T17:59:57.048Z,19.55
2024-03-08T18:01:33.651Z,21.88
2024-03-08T18:03:09.946Z,18.65
2024-03-08T18:04:46.742Z,22.88
2024-03-08T18:06:19.923Z,20.90
2024-03-08T18:07:54.564Z,20.42
2024-03-08T18:09:31.454Z,21.58
2024-03-08T18:11:05.938Z,19.30
2024-03-08T18:12:39.139Z,22.75
2024-03-08T18:14:15.998Z,20.58
2024-03-08T18:15:49.387Z,19.90
2024-03-08T18:17:24.295Z,19.50
2024-03-08T18:18:57.338Z,21.67
2024-03-08T18:20:33.794Z,20.05
2024-03-08T18:22:09.199Z,19.83
2024-03-08T18:23:45.021Z,22.92
2024-03-08T18:25:21.152Z,18.20
2024-03-08T18:26:55.369Z,21.30
2024-03-08T18:28:29.502Z,22.17
2024-03-08T18:30:06.858Z,21.52
2024-03-08T18:31:39.990Z,22.65
2024-03-08T18:33:15.854Z,23.00
2024-03-08T18:34:51.120Z,19.30
2024-03-08T18:36:25.690Z,21.50
2024-03-08T18:37:59.105Z,21.50
2024-03-08T18:39:33.397Z,19.70
2024-03-08T18:41:06.571Z,19.58
2024-03-08T18:42:41.881Z,22.10
2024-03-08T18:44:15.318Z,21.75
2024-03-08T18:45:51.366Z,21.13
2024-03-08T18:47:24.346Z,22.17
2024-03-08T18:48:59.206Z,18.42
2024-03-08T18:50:33.786Z,17.63
2024-03-08T18:52:07.907Z,22.30
2024-03-08T18:53:42.925Z,24.23
2024-03-08T18:55:18.244Z,21.08
2024-03-08T18:56:52.861Z,23.92
2024-03-08T18:58:39.238Z,18.30
2024-03-08T19:00:22.713Z,23.33
2024-03-08T19:02:00.894Z,21.42
2024-03-08T19:03:35.816Z,20.45
2024-03-08T19:05:16.642Z,21.55
2024-03-08T19:06:52.649Z,17.70
2024-03-08T19:08:27.565Z,22.92
2024-03-08T19:10:00.931Z,21.25
2024-03-08T19:11:35.233Z,22.42
2024-03-08T19:13:10.455Z,20.15
2024-03-08T19:14:44.655Z,24.70
2024-03-08T19:16:19.023Z,24.33
2024-03-08T19:17:56.431Z,20.98
2024-03-08T19:19:29.964Z,22.98
2024-03-08T19:21:04.057Z,22.38
2024-03-08T19:22:38.905Z,21.13
2024-03-08T19:24:13.217Z,20.10
2024-03-08T19:25:46.847Z,19.95
2024-03-08T19:27:20.962Z,23.88
2024-03-08T19:28:55.251Z,20.33
2024-03-08T19:30:30.047Z,19.63
2024-03-08T19:32:04.804Z,19.90
2024-03-08T19:33:41.637Z,20.38
2024-03-08T19:35:19.319Z,18.17
2024-03-08T19:36:54.023Z,21.08
2024-03-08T19:38:32.492Z,21.30
2024-03-08T19:40:14.636Z,19.30
2024-03-08T19:41:48.618Z,23.83
2024-03-08T19:43:22.925Z,24.58
2024-03-08T19:44:56.702Z,21.90
2024-03-08T19:46:35.843Z,29.60
2024-03-08T19:48:17.271Z,22.90
2024-03-08T19:49:53.099Z,24.58
2024-03-08T19:51:27.673Z,26.88
2024-03-08T19:53:05.436Z,26.27
2024-03-08T19:54:40.545Z,26.52
2024-03-08T19:56:13.732Z,22.20
2024-03-08T19:57:50.814Z,26.05
2024-03-08T19:59:25.671Z,23.08
2024-03-08T20:01:00.127Z,27.00
2024-03-08T20:04:06.339Z,31.07
2024-03-08T20:05:44.056Z,31.48
2024-03-08T20:07:18.268Z,21.70
2024-03-08T20:08:52.660Z,24.25
2024-03-08T20:10:26.293Z,23.02
2024-03-08T20:12:00.413Z,20.48
2024-03-08T20:13:35.762Z,24.65
2024-03-08T20:15:11.965Z,21.02
2024-03-08T20:16:45.857Z,23.90
2024-03-08T20:18:20.678Z,25.30
2024-03-08T20:19:54.119Z,23.20
2024-03-08T20:21:29.425Z,24.80
2024-03-08T20:23:05.362Z,23.00
2024-03-08T20:24:39.599Z,24.35
2024-03-08T20:26:16.384Z,23.30
2024-03-08T20:27:52.630Z,27.55
2024-03-08T20:29:28.422Z,21.38